Time;durP1;ratioP1;P1;durP2;ratioP2;P2;SDS_P1;SDS_P2;PMS_P1;PMS_P2;Temp;Humidity;BMP_temperature;BMP_pressure;BME280_temperature;BME280_humidity;BME280_pressure;Samples;Min_cycle;Max_cycle;Signal;HPM_P1;HPM_P2
2022/09/04 07:03:31;;;;;;;;;;;;;;;21.33;76.27;97168.97;4205310;27;10403;-72
2022/09/04 07:05:45;;;;;;;;;;;;;;;21.66;75.99;97164.47;4177691;28;5780;-73
2022/09/04 07:07:58;;;;;;;;;;;;;;;21.88;75.10;97165.19;4214216;28;5784;-74
2022/09/04 07:10:08;;;;;;;;;;;;;;;22.07;74.67;97171.03;4209524;28;6502;-73
2022/09/04 07:12:32;;;;;;;;;;;;;;;22.23;74.04;97162.00;4197795;28;5785;-73
2022/09/04 07:14:55;;;;;;;;;;;;;;;22.39;73.36;97162.91;4197541;28;5781;-74
2022/09/04 07:17:08;;;;;;;;;;;;;;;22.49;72.97;97164.88;4197007;28;5802;-73
2022/09/04 07:19:48;;;;;;;;;;;;;;;22.61;72.71;97168.16;4206338;28;6453;-74
2022/09/04 07:22:11;;;;;;;;;;;;;;;22.70;72.53;97166.59;4212725;28;5689;-73
2022/09/04 07:24:49;;;;;;;;;;;;;;;22.75;71.81;97169.31;4214368;28;5689;-74
2022/09/04 07:27:00;;;;;;;;;;;;;;;22.79;72.16;97164.22;4211708;28;5987;-74
2022/09/04 07:29:18;;;;;;;;;;;;;;;22.83;71.72;97170.72;4197347;28;5718;-73
2022/09/04 07:31:37;;;;;;;;;;;;;;;22.87;71.34;97172.63;4197227;28;6652;-73
2022/09/04 07:33:50;;;;;;;;;;;;;;;22.89;71.25;97165.13;4197722;28;5726;-74
2022/09/04 07:35:59;;;;;;;;;;;;;;;22.92;70.83;97169.19;4204391;28;5701;-73
2022/09/04 07:38:14;;;;;;;;;;;;;;;22.94;71.02;97173.22;4213932;28;5681;-74
2022/09/04 07:40:21;;;;;;;;;;;;;;;22.95;70.40;97168.63;4214237;28;5788;-73
2022/09/04 07:42:32;;;;;;;;;;;;;;;22.95;70.46;97164.06;4213842;28;5685;-74
2022/09/04 07:44:47;;;;;;;;;;;;;;;22.97;70.38;97165.69;4214226;28;5788;-74
2022/09/04 07:47:01;;;;;;;;;;;;;;;22.97;69.79;97171.88;4214145;28;5709;-74
2022/09/04 07:49:15;;;;;;;;;;;;;;;22.98;70.23;97168.09;4207776;28;5742;-74
2022/09/04 07:51:24;;;;;;;;;;;;;;;22.99;69.78;97168.91;4196976;28;5802;-73
2022/09/04 07:53:43;;;;;;;;;;;;;;;23.01;69.62;97174.88;4196694;28;5790;-74
2022/09/04 07:55:49;;;;;;;;;;;;;;;23.02;69.42;97174.63;4196843;28;5710;-73
2022/09/04 07:58:19;;;;;;;;;;;;;;;23.06;69.26;97180.28;4197036;28;5698;-74
2022/09/04 08:00:22;;;;;;;;;;;;;;;23.08;69.28;97181.63;4194507;28;5882;-74
2022/09/04 08:03:02;;;;;;;;;;;;;;;23.09;69.02;97185.13;4196701;28;5707;-74
2022/09/04 08:05:20;;;;;;;;;;;;;;;23.12;68.87;97190.84;4146945;28;5793;-74
2022/09/04 08:07:46;;;;;;;;;;;;;;;23.14;68.59;97188.69;4139464;28;5846;-74
2022/09/04 08:10:14;;;;;;;;;;;;;;;23.20;68.37;97197.59;4139100;28;5826;-73
2022/09/04 08:12:55;;;;;;;;;;;;;;;23.21;68.44;97197.31;4134840;28;5878;-74
2022/09/04 08:15:12;;;;;;;;;;;;;;;23.22;68.29;97195.47;4134397;28;5898;-74
2022/09/04 08:17:42;;;;;;;;;;;;;;;23.26;67.75;97198.44;4134414;28;5877;-74
2022/09/04 08:19:53;;;;;;;;;;;;;;;23.27;67.92;97200.06;4104722;28;6512;-73
2022/09/04 08:21:56;;;;;;;;;;;;;;;23.33;67.68;97201.69;4149909;28;6487;-73
2022/09/04 08:24:40;;;;;;;;;;;;;;;23.35;67.26;97215.75;4150793;28;5773;-73
2022/09/04 08:27:00;;;;;;;;;;;;;;;23.37;67.27;97208.19;4143694;28;5822;-73
2022/09/04 08:29:30;;;;;;;;;;;;;;;23.39;67.46;97214.13;4139462;28;5934;-73
2022/09/04 08:31:41;;;;;;;;;;;;;;;23.38;67.23;97210.63;4142578;28;5868;-74
2022/09/04 08:34:08;;;;;;;;;;;;;;;23.38;66.80;97217.91;4145798;28;5834;-74
2022/09/04 08:36:20;;;;;;;;;;;;;;;23.38;67.15;97213.31;4144196;28;5840;-74
2022/09/04 08:38:49;;;;;;;;;;;;;;;23.37;66.65;97214.41;4134897;28;5898;-74
2022/09/04 08:41:26;;;;;;;;;;;;;;;23.38;67.05;97220.59;4150431;28;5777;-74
2022/09/04 08:43:52;;;;;;;;;;;;;;;23.38;66.68;97215.22;4179221;28;6391;-74
2022/09/04 08:46:26;;;;;;;;;;;;;;;23.38;66.46;97218.72;4181489;28;5861;-74
2022/09/04 08:49:13;;;;;;;;;;;;;;;23.40;66.51;97221.13;4169094;28;5759;-74
2022/09/04 08:51:48;;;;;;;;;;;;;;;23.42;66.40;97222.50;4169356;28;5875;-74
2022/09/04 08:54:19;;;;;;;;;;;;;;;23.45;66.27;97223.88;4180114;28;5711;-75
2022/09/04 08:56:33;;;;;;;;;;;;;;;23.43;66.28;97218.72;4172814;28;5798;-74
2022/09/04 08:59:09;;;;;;;;;;;;;;;23.42;65.96;97227.06;4172120;28;5739;-74
2022/09/04 09:01:39;;;;;;;;;;;;;;;23.44;65.93;97219.53;4171790;28;5978;-74
2022/09/04 09:04:21;;;;;;;;;;;;;;;23.46;65.97;97233.59;4178583;28;5892;-74
2022/09/04 09:07:07;;;;;;;;;;;;;;;23.48;65.52;97232.25;4104611;28;5781;-73
2022/09/04 09:09:43;;;;;;;;;;;;;;;23.50;65.59;97227.38;4149290;28;5891;-73
2022/09/04 09:12:22;;;;;;;;;;;;;;;23.52;65.40;97224.41;4149075;28;5747;-73
2022/09/04 09:14:53;;;;;;;;;;;;;;;23.56;65.38;97228.22;4129253;28;5874;-73
2022/09/04 09:17:11;;;;;;;;;;;;;;;23.59;65.04;97227.72;4147576;28;6574;-69
2022/09/04 09:19:27;;;;;;;;;;;;;;;23.59;64.95;97227.72;4126096;28;5769;-69
2022/09/04 09:21:43;;;;;;;;;;;;;;;23.58;65.27;97228.78;4143049;28;5131;-70
2022/09/04 09:24:08;;;;;;;;;;;;;;;23.59;65.03;97229.59;4138276;28;5896;-70
2022/09/04 09:26:28;;;;;;;;;;;;;;;23.60;64.92;97228.53;4138101;28;5866;-71
2022/09/04 09:29:11;;;;;;;;;;;;;;;23.63;64.64;97225.28;4143546;28;5903;-71
2022/09/04 09:31:49;;;;;;;;;;;;;;;23.66;64.53;97225.56;4144774;28;5818;-70
2022/09/04 09:34:24;;;;;;;;;;;;;;;23.68;64.60;97223.44;4141212;28;7786;-71
2022/09/04 09:36:46;;;;;;;;;;;;;;;23.70;64.39;97218.56;4141760;28;5875;-70
2022/09/04 09:39:19;;;;;;;;;;;;;;;23.73;64.43;97222.63;4146855;28;5784;-70
2022/09/04 09:41:59;;;;;;;;;;;;;;;23.74;64.22;97216.94;4091412;28;5764;-69
2022/09/04 09:44:56;;;;;;;;;;;;;;;23.73;64.43;97212.63;4174731;28;5772;-69
2022/09/04 09:47:46;;;;;;;;;;;;;;;23.74;64.53;97205.34;4165470;28;5755;-69
2022/09/04 09:50:19;;;;;;;;;;;;;;;23.73;63.93;97201.84;4163471;28;5723;-70
2022/09/04 09:52:59;;;;;;;;;;;;;;;23.73;63.91;97201.84;4177349;28;5818;-70
2022/09/04 09:55:58;;;;;;;;;;;;;;;23.75;63.85;97205.06;4176921;28;5873;-70
2022/09/04 09:58:32;;;;;;;;;;;;;;;23.77;63.86;97197.50;4176669;28;5138;-69
2022/09/04 10:00:45;;;;;;;;;;;;;;;23.77;64.21;97197.50;4180380;28;5817;-71
2022/09/04 10:03:31;;;;;;;;;;;;;;;23.78;63.95;97196.47;4178634;28;5774;-68
2022/09/04 10:05:55;;;;;;;;;;;;;;;23.79;63.62;97200.78;4180339;28;5718;-70
2022/09/04 10:08:26;;;;;;;;;;;;;;;23.81;63.93;97195.91;4177589;28;5962;-69
2022/09/04 10:11:01;;;;;;;;;;;;;;;23.84;63.60;97201.84;4180019;28;6048;-73
2022/09/04 10:13:29;;;;;;;;;;;;;;;23.84;63.39;97207.25;4152490;28;5722;-73
2022/09/04 10:16:05;;;;;;;;;;;;;;;23.85;63.54;97204.28;4173597;28;5756;-73
2022/09/04 10:18:50;;;;;;;;;;;;;;;23.87;63.62;97206.72;4146813;28;5796;-70
2022/09/04 10:21:25;;;;;;;;;;;;;;;23.89;63.48;97205.34;4180153;28;5827;-68
2022/09/04 10:24:19;;;;;;;;;;;;;;;23.93;63.64;97197.56;4161548;28;5978;-68
2022/09/04 10:27:14;;;;;;;;;;;;;;;23.93;63.48;97200.25;4175822;28;5728;-66
2022/09/04 10:29:31;;;;;;;;;;;;;;;23.93;63.16;97202.94;4116593;28;5888;-67
2022/09/04 10:31:50;;;;;;;;;;;;;;;23.95;63.48;97206.19;4107093;28;5791;-69
2022/09/04 10:34:13;;;;;;;;;;;;;;;23.98;63.44;97200.25;4110484;28;5912;-72
2022/09/04 10:36:31;;;;;;;;;;;;;;;23.96;63.20;97199.69;4114510;28;5897;-71
2022/09/04 10:40:34;;;;;;;;;;;;;;;23.98;63.27;97203.75;4122795;28;5983;-67
2022/09/04 10:41:24;;;;;;;;;;;;;;;23.98;63.09;97200.25;4114615;28;5795;-68
2022/09/04 10:43:47;;;;;;;;;;;;;;;23.98;63.17;97190.25;4110551;28;5811;-69
2022/09/04 10:46:02;;;;;;;;;;;;;;;24.02;63.21;97198.66;4116180;28;5815;-71
2022/09/04 10:48:42;;;;;;;;;;;;;;;24.02;62.85;97188.66;4100044;28;5808;-67
2022/09/04 10:51:15;;;;;;;;;;;;;;;24.04;63.04;97197.28;4117126;28;5823;-68
2022/09/04 10:53:35;;;;;;;;;;;;;;;24.06;63.08;97194.31;4112293;28;5935;-71
2022/09/04 10:55:53;;;;;;;;;;;;;;;24.08;63.06;97187.56;4114158;28;5898;-71
2022/09/04 10:58:13;;;;;;;;;;;;;;;24.11;62.97;97191.59;4124075;28;5928;-67
2022/09/04 11:00:19;;;;;;;;;;;;;;;24.12;62.64;97185.13;4149523;28;6518;-68
2022/09/04 11:03:02;;;;;;;;;;;;;;;24.13;63.08;97189.47;4179049;28;5852;-67
2022/09/04 11:05:36;;;;;;;;;;;;;;;24.18;62.85;97186.75;4188172;28;5844;-70
2022/09/04 11:08:11;;;;;;;;;;;;;;;24.19;62.91;97193.78;4180379;28;5993;-71
2022/09/04 11:10:27;;;;;;;;;;;;;;;24.22;62.71;97189.72;4173616;28;5744;-76
2022/09/04 11:12:49;;;;;;;;;;;;;;;24.22;62.41;97192.41;4178530;28;5727;-69
2022/09/04 11:15:23;;;;;;;;;;;;;;;24.22;62.95;97187.00;4170049;28;5736;-70
2022/09/04 11:18:13;;;;;;;;;;;;;;;24.20;62.59;97192.69;4171479;28;5793;-69
2022/09/04 11:21:20;;;;;;;;;;;;;;;24.21;62.79;97191.59;4128751;28;6352;-70
2022/09/04 11:24:14;;;;;;;;;;;;;;;24.25;62.61;97183.78;4094816;29;5933;-69
2022/09/04 11:26:53;;;;;;;;;;;;;;;24.24;62.84;97185.69;4097230;29;6048;-69
2022/09/04 11:29:17;;;;;;;;;;;;;;;24.25;62.69;97186.50;4094889;28;5841;-71
2022/09/04 11:31:47;;;;;;;;;;;;;;;24.25;62.31;97192.69;4093902;28;5883;-69
2022/09/04 11:34:21;;;;;;;;;;;;;;;24.27;62.61;97189.72;4094302;28;5833;-72
2022/09/04 11:36:53;;;;;;;;;;;;;;;24.26;62.59;97193.50;4095531;29;5921;-72
2022/09/04 11:39:40;;;;;;;;;;;;;;;24.27;62.25;97195.94;4094165;28;5841;-72
2022/09/04 11:42:10;;;;;;;;;;;;;;;24.27;62.60;97190.53;4095052;28;6585;-77
2022/09/04 11:44:28;;;;;;;;;;;;;;;24.31;62.56;97190.81;4097414;28;6549;-69
2022/09/04 11:47:00;;;;;;;;;;;;;;;24.33;62.41;97191.34;4092240;28;5233;-71
2022/09/04 11:49:33;;;;;;;;;;;;;;;24.33;62.24;97200.28;4093568;28;6071;-77
2022/09/04 11:52:02;;;;;;;;;;;;;;;24.35;62.45;97192.72;4104561;28;5847;-78
2022/09/04 11:54:32;;;;;;;;;;;;;;;24.37;61.99;97193.25;4125817;28;5737;-72
2022/09/04 11:56:55;;;;;;;;;;;;;;;24.41;62.22;97190.81;4176598;28;5792;-74
2022/09/04 11:59:10;;;;;;;;;;;;;;;24.43;61.86;97187.84;4180567;28;5791;-74
2022/09/04 12:01:27;;;;;;;;;;;;;;;24.43;62.02;97193.25;4182143;28;6090;-74
2022/09/04 12:04:06;;;;;;;;;;;;;;;24.46;62.08;97187.28;4176259;28;5735;-76
2022/09/04 12:06:49;;;;;;;;;;;;;;;24.50;61.65;97182.97;4165035;28;5723;-75
2022/09/04 12:09:29;;;;;;;;;;;;;;;24.51;61.86;97188.09;4172269;28;5760;-73
2022/09/04 12:12:10;;;;;;;;;;;;;;;24.53;61.51;97185.13;4171425;28;5857;-75
2022/09/04 12:14:29;;;;;;;;;;;;;;;24.53;61.82;97172.41;4174038;28;5798;-74
2022/09/04 12:17:02;;;;;;;;;;;;;;;24.56;61.74;97181.88;4171378;28;5764;-74
2022/09/04 12:19:53;;;;;;;;;;;;;;;24.57;61.43;97178.88;4170342;28;5806;-73
2022/09/04 12:22:35;;;;;;;;;;;;;;;24.58;61.55;97179.72;4170626;28;5751;-73
2022/09/04 12:24:55;;;;;;;;;;;;;;;24.58;61.30;97177.84;4175211;28;5809;-74
2022/09/04 12:27:25;;;;;;;;;;;;;;;24.60;61.51;97180.25;4176558;28;5893;-75
2022/09/04 12:29:46;;;;;;;;;;;;;;;24.63;61.11;97171.59;4144461;28;5967;-75
2022/09/04 12:32:28;;;;;;;;;;;;;;;24.65;61.24;97177.53;4174227;28;5744;-70
2022/09/04 12:34:53;;;;;;;;;;;;;;;24.68;61.47;97175.09;4167267;28;5743;-70
2022/09/04 12:37:22;;;;;;;;;;;;;;;24.69;61.00;97173.22;4176498;28;5821;-72
2022/09/04 12:40:04;;;;;;;;;;;;;;;24.70;61.31;97177.53;4175963;28;5723;-72
2022/09/04 12:42:15;;;;;;;;;;;;;;;24.71;61.27;97176.44;4171233;28;5819;-71
2022/09/04 12:44:26;;;;;;;;;;;;;;;24.70;61.36;97180.25;4173857;28;5818;-71
2022/09/04 12:46:56;;;;;;;;;;;;;;;24.72;61.13;97180.78;4170570;28;5818;-80
2022/09/04 12:49:05;;;;;;;;;;;;;;;24.75;60.79;97171.28;4173917;28;5739;-68
2022/09/04 12:51:13;;;;;;;;;;;;;;;24.76;61.07;97179.13;4175142;28;5800;-73
2022/09/04 12:53:48;;;;;;;;;;;;;;;24.79;60.92;97170.47;4167733;28;5732;-71
2022/09/04 12:56:04;;;;;;;;;;;;;;;24.82;60.69;97171.81;4169434;28;5815;-72
2022/09/04 12:58:23;;;;;;;;;;;;;;;24.84;60.83;97166.94;4174660;28;5838;-72
2022/09/04 13:00:31;;;;;;;;;;;;;;;24.84;60.54;97162.34;4170870;28;6544;-69
2022/09/04 13:03:00;;;;;;;;;;;;;;;24.82;60.64;97167.22;4174939;28;5734;-72
2022/09/04 13:05:19;;;;;;;;;;;;;;;24.85;60.51;97166.66;4167723;28;5731;-72
2022/09/04 13:07:36;;;;;;;;;;;;;;;24.88;60.62;97154.47;4172253;28;5734;-74
2022/09/04 13:09:49;;;;;;;;;;;;;;;24.90;60.26;97163.94;4172253;28;5751;-66
2022/09/04 13:12:09;;;;;;;;;;;;;;;24.93;60.18;97158.00;4167508;28;5881;-73
2022/09/04 13:14:39;;;;;;;;;;;;;;;24.95;60.24;97161.22;4176465;28;5715;-69
2022/09/04 13:16:48;;;;;;;;;;;;;;;24.97;60.21;97156.34;4174849;28;5744;-71
2022/09/04 13:19:10;;;;;;;;;;;;;;;24.96;59.88;97168.25;4168574;28;5907;-75
2022/09/04 13:21:24;;;;;;;;;;;;;;;24.95;59.82;97166.63;4175644;28;5808;-72
2022/09/04 13:23:40;;;;;;;;;;;;;;;24.93;59.73;97160.69;4168083;28;5874;-72
2022/09/04 13:26:03;;;;;;;;;;;;;;;24.93;59.74;97163.41;4182784;28;5914;-72
2022/09/04 13:28:17;;;;;;;;;;;;;;;24.93;59.50;97163.41;4179038;28;5722;-71
2022/09/04 13:30:24;;;;;;;;;;;;;;;24.93;59.36;97166.09;4170458;28;5178;-75
2022/09/04 13:32:40;;;;;;;;;;;;;;;25.00;58.94;97159.59;4180221;28;5722;-69
2022/09/04 13:34:59;;;;;;;;;;;;;;;25.03;58.80;97159.06;4182024;28;5723;-67
2022/09/04 13:37:08;;;;;;;;;;;;;;;25.05;58.60;97154.19;4176472;28;5747;-69
2022/09/04 13:39:37;;;;;;;;;;;;;;;25.06;58.50;97155.81;4182584;28;5722;-67
2022/09/04 13:42:11;;;;;;;;;;;;;;;25.07;58.24;97147.41;4175544;28;5830;-66
2022/09/04 13:44:39;;;;;;;;;;;;;;;25.10;57.99;97148.75;4183166;28;5715;-66
2022/09/04 13:46:47;;;;;;;;;;;;;;;25.10;57.67;97146.03;4174079;28;5801;-67
2022/09/04 13:48:55;;;;;;;;;;;;;;;25.09;57.87;97147.13;4168239;28;5879;-67
2022/09/04 13:51:02;;;;;;;;;;;;;;;25.08;57.33;97148.22;4173053;28;5841;-66
2022/09/04 13:53:21;;;;;;;;;;;;;;;25.08;57.53;97140.13;4176660;28;5766;-64
2022/09/04 13:55:27;;;;;;;;;;;;;;;25.11;57.53;97142.25;4174799;28;5731;-65
2022/09/04 13:57:36;;;;;;;;;;;;;;;25.10;57.11;97144.16;4184058;28;6502;-77
2022/09/04 13:59:42;;;;;;;;;;;;;;;25.12;56.97;97146.56;4180522;28;5769;-72
2022/09/04 14:01:51;;;;;;;;;;;;;;;25.14;56.88;97145.22;4171582;28;5815;-74
2022/09/04 14:03:58;;;;;;;;;;;;;;;25.16;56.97;97144.94;4176843;28;5756;-69
2022/09/04 14:06:03;;;;;;;;;;;;;;;25.16;56.37;97143.06;4175838;28;5949;-69
2022/09/04 14:08:13;;;;;;;;;;;;;;;25.17;56.51;97146.56;4167003;28;7741;-69
2022/09/04 14:10:19;;;;;;;;;;;;;;;25.14;56.22;97144.41;4173566;28;5766;-68
2022/09/04 14:12:44;;;;;;;;;;;;;;;25.15;56.05;97146.84;4177927;28;5825;-70
2022/09/04 14:15:29;;;;;;;;;;;;;;;25.16;56.06;97142.25;4175580;28;5782;-69
2022/09/04 14:17:40;;;;;;;;;;;;;;;25.17;55.77;97143.88;4169045;28;7802;-71
2022/09/04 14:19:52;;;;;;;;;;;;;;;25.16;55.80;97143.06;4176623;28;5827;-69
2022/09/04 14:22:11;;;;;;;;;;;;;;;25.17;55.65;97141.16;4176693;28;5824;-69
2022/09/04 14:24:23;;;;;;;;;;;;;;;25.17;55.44;97144.66;4175347;28;5743;-69
2022/09/04 14:26:38;;;;;;;;;;;;;;;25.18;55.73;97143.56;4203323;28;6739;-69
2022/09/04 14:28:49;;;;;;;;;;;;;;;25.20;55.18;97137.88;4170777;28;5851;-75
2022/09/04 14:31:05;;;;;;;;;;;;;;;25.20;55.26;97133.28;4215972;28;5823;-73
2022/09/04 14:33:23;;;;;;;;;;;;;;;25.21;55.05;97144.91;4173275;28;5731;-71
2022/09/04 14:35:35;;;;;;;;;;;;;;;25.23;55.18;97140.03;4177557;28;6041;-72
2022/09/04 14:38:13;;;;;;;;;;;;;;;25.20;55.10;97141.41;4179684;28;5851;-78
2022/09/04 14:40:20;;;;;;;;;;;;;;;25.21;55.09;97134.09;4180963;28;5794;-78
2022/09/04 14:42:33;;;;;;;;;;;;;;;25.25;54.69;97132.44;4183305;28;6039;-69
2022/09/04 14:44:54;;;;;;;;;;;;;;;25.29;54.74;97135.41;4180795;28;5856;-66
2022/09/04 14:47:10;;;;;;;;;;;;;;;25.26;54.44;97131.38;4184903;28;5876;-67
2022/09/04 14:49:20;;;;;;;;;;;;;;;25.25;54.30;97129.72;4195001;28;6401;-66
2022/09/04 14:51:34;;;;;;;;;;;;;;;25.26;54.53;97125.97;4186441;28;5693;-66
2022/09/04 14:53:37;;;;;;;;;;;;;;;25.27;54.00;97121.34;4192775;28;6517;-66
2022/09/04 14:55:44;;;;;;;;;;;;;;;25.27;53.91;97116.75;4181977;28;5794;-66
2022/09/04 14:57:50;;;;;;;;;;;;;;;25.30;53.56;97116.19;4177624;28;5737;-66
2022/09/04 15:00:03;;;;;;;;;;;;;;;25.31;53.41;97123.22;4183244;28;5715;-68
2022/09/04 15:02:32;;;;;;;;;;;;;;;25.35;52.93;97118.84;4187347;28;5774;-71
2022/09/04 15:04:45;;;;;;;;;;;;;;;25.37;52.70;97115.88;4171718;28;5904;-67
2022/09/04 15:06:52;;;;;;;;;;;;;;;25.39;52.95;97114.50;4169273;28;5956;-68
2022/09/04 15:09:24;;;;;;;;;;;;;;;25.40;52.81;97109.91;4177498;28;5793;-67
2022/09/04 15:11:32;;;;;;;;;;;;;;;25.42;52.69;97116.66;4174725;28;5910;-68
2022/09/04 15:13:48;;;;;;;;;;;;;;;25.41;52.59;97109.63;4181111;28;5974;-68
2022/09/04 15:15:57;;;;;;;;;;;;;;;25.41;52.49;97108.81;4179213;28;5730;-68
2022/09/04 15:18:09;;;;;;;;;;;;;;;25.42;52.31;97108.53;4175908;28;6422;-68
2022/09/04 15:20:21;;;;;;;;;;;;;;;25.45;52.57;97113.38;4185385;28;5722;-67
2022/09/04 15:22:32;;;;;;;;;;;;;;;25.47;52.63;97115.81;4191939;28;5738;-66
2022/09/04 15:24:38;;;;;;;;;;;;;;;25.49;52.74;97102.81;4188918;28;5754;-67
2022/09/04 15:26:45;;;;;;;;;;;;;;;25.50;52.60;97102.53;4198629;28;5709;-68
2022/09/04 15:28:51;;;;;;;;;;;;;;;25.49;52.54;97103.63;4186352;28;5813;-67
2022/09/04 15:31:10;;;;;;;;;;;;;;;25.47;52.51;97111.19;4186186;28;6424;-67
2022/09/04 15:33:19;;;;;;;;;;;;;;;25.46;52.71;97109.59;4188741;28;5801;-65
2022/09/04 15:35:26;;;;;;;;;;;;;;;25.46;52.19;97100.66;4193608;28;5689;-65
2022/09/04 15:37:35;;;;;;;;;;;;;;;25.45;52.15;97101.75;4199073;28;6491;-66
2022/09/04 15:39:44;;;;;;;;;;;;;;;25.44;52.06;97092.00;4193713;28;5788;-65
2022/09/04 15:41:49;;;;;;;;;;;;;;;25.45;52.13;97102.56;4191533;28;5964;-65
2022/09/04 15:43:57;;;;;;;;;;;;;;;25.45;52.15;97097.13;4189651;28;5723;-65
2022/09/04 15:46:05;;;;;;;;;;;;;;;25.48;51.74;97093.91;4195505;28;5761;-65
2022/09/04 15:48:20;;;;;;;;;;;;;;;25.49;51.70;97086.59;4187888;28;7748;-65
2022/09/04 15:50:27;;;;;;;;;;;;;;;25.48;51.55;97093.06;4197833;28;5701;-65
2022/09/04 15:52:39;;;;;;;;;;;;;;;25.47;51.37;97088.72;4201458;28;7730;-65
2022/09/04 15:55:00;;;;;;;;;;;;;;;25.50;51.35;97093.59;4202171;28;5714;-65
2022/09/04 15:57:12;;;;;;;;;;;;;;;25.52;51.28;97089.53;4180622;28;5705;-65
2022/09/04 15:59:19;;;;;;;;;;;;;;;25.54;50.96;97084.63;4197451;28;5776;-67
2022/09/04 16:01:26;;;;;;;;;;;;;;;25.57;51.14;97088.66;4189640;28;5695;-66
2022/09/04 16:03:39;;;;;;;;;;;;;;;25.58;51.10;97084.06;4182067;28;5730;-65
2022/09/04 16:05:47;;;;;;;;;;;;;;;25.57;50.82;97082.44;4177931;28;6706;-65
2022/09/04 16:08:02;;;;;;;;;;;;;;;25.55;50.98;97078.13;4174090;28;5740;-65
2022/09/04 16:10:15;;;;;;;;;;;;;;;25.54;50.62;97079.22;4185478;28;6396;-65
2022/09/04 16:12:22;;;;;;;;;;;;;;;25.58;50.58;97073.22;4184297;28;5908;-65
2022/09/04 16:14:30;;;;;;;;;;;;;;;25.58;50.85;97076.75;4184271;28;5714;-65
2022/09/04 16:16:42;;;;;;;;;;;;;;;25.58;50.37;97073.22;4176329;28;5822;-66
2022/09/04 16:18:54;;;;;;;;;;;;;;;25.59;50.20;97074.84;4181393;28;5750;-66
2022/09/04 16:21:02;;;;;;;;;;;;;;;25.59;50.25;97074.84;4179450;28;5785;-66
2022/09/04 16:23:10;;;;;;;;;;;;;;;25.59;50.04;97080.25;4178671;28;6110;-65
2022/09/04 16:25:24;;;;;;;;;;;;;;;25.58;49.89;97076.75;4178982;28;6445;-65
2022/09/04 16:27:29;;;;;;;;;;;;;;;25.60;49.71;97077.28;4173871;28;5710;-65
2022/09/04 16:29:35;;;;;;;;;;;;;;;25.61;49.74;97075.41;4170708;28;5866;-65
2022/09/04 16:31:38;;;;;;;;;;;;;;;25.62;49.71;97068.88;4177187;28;5812;-65
2022/09/04 16:33:48;;;;;;;;;;;;;;;25.60;49.57;97074.59;4179334;28;5797;-65
2022/09/04 16:35:54;;;;;;;;;;;;;;;25.59;49.42;97082.97;4170896;28;5827;-66
2022/09/04 16:38:06;;;;;;;;;;;;;;;25.61;49.33;97075.41;4170327;28;5811;-65
2022/09/04 16:40:25;;;;;;;;;;;;;;;25.63;49.29;97075.91;4178269;28;5794;-65
2022/09/04 16:42:36;;;;;;;;;;;;;;;25.62;49.37;97074.31;4171712;28;5855;-65
2022/09/04 16:44:45;;;;;;;;;;;;;;;25.63;49.50;97071.31;4172879;28;5727;-69
2022/09/04 16:47:01;;;;;;;;;;;;;;;25.62;49.39;97069.69;4178595;28;7082;-72
2022/09/04 16:51:39;;;;;;;;;;;;;;;25.60;49.11;97071.06;4206398;23;5856;-70
2022/09/04 16:53:51;;;;;;;;;;;;;;;25.60;49.29;97061.06;4068575;29;6663;-65
2022/09/04 16:55:58;;;;;;;;;;;;;;;25.59;48.87;97067.53;4065161;29;6068;-68
2022/09/04 16:58:19;;;;;;;;;;;;;;;25.57;48.81;97066.19;4067709;29;6011;-68
2022/09/04 17:00:51;;;;;;;;;;;;;;;25.54;48.65;97060.28;4066593;29;5862;-69
2022/09/04 17:03:00;;;;;;;;;;;;;;;25.56;48.67;97065.41;4069985;29;5955;-69
2022/09/04 17:05:17;;;;;;;;;;;;;;;25.55;48.51;97064.59;4062997;29;6095;-69
2022/09/04 17:07:25;;;;;;;;;;;;;;;25.54;48.64;97062.97;4072185;29;5969;-68
2022/09/04 17:09:41;;;;;;;;;;;;;;;25.52;48.43;97062.44;4068903;29;5962;-67
2022/09/04 17:11:51;;;;;;;;;;;;;;;25.53;48.65;97061.38;4070271;29;5887;-70
2022/09/04 17:14:04;;;;;;;;;;;;;;;25.54;48.21;97056.75;4071684;29;5929;-66
2022/09/04 17:16:16;;;;;;;;;;;;;;;25.54;48.52;97054.84;4071385;29;5958;-69
2022/09/04 17:18:21;;;;;;;;;;;;;;;25.54;48.40;97060.28;4067800;29;5871;-68
2022/09/04 17:20:29;;;;;;;;;;;;;;;25.55;48.09;97059.19;4069865;29;5896;-67
2022/09/04 17:23:09;;;;;;;;;;;;;;;25.54;48.10;97052.16;4062202;29;6109;-73
2022/09/04 17:25:39;;;;;;;;;;;;;;;25.54;48.44;97056.75;4068518;29;5987;-69
2022/09/04 17:28:24;;;;;;;;;;;;;;;25.54;48.21;97052.16;4067440;29;5957;-71
2022/09/04 17:30:52;;;;;;;;;;;;;;;25.52;48.16;97040.81;4068250;29;5965;-71
2022/09/04 17:33:00;;;;;;;;;;;;;;;25.49;48.48;97038.66;4072666;29;5872;-68
2022/09/04 17:35:30;;;;;;;;;;;;;;;25.47;48.21;97046.22;4062270;29;6025;-68
2022/09/04 17:37:59;;;;;;;;;;;;;;;25.45;48.20;97045.72;4071984;29;5961;-68
2022/09/04 17:40:26;;;;;;;;;;;;;;;25.43;48.42;97039.78;4067260;29;6012;-69
2022/09/04 17:42:59;;;;;;;;;;;;;;;25.41;48.33;97047.38;4065171;29;5949;-65
2022/09/04 17:45:34;;;;;;;;;;;;;;;25.40;48.39;97042.25;4069602;29;5942;-68
2022/09/04 17:47:41;;;;;;;;;;;;;;;25.37;48.39;97046.34;4069150;29;5859;-69
2022/09/04 17:49:48;;;;;;;;;;;;;;;25.37;48.42;97048.22;4070142;29;5912;-65
2022/09/04 17:51:55;;;;;;;;;;;;;;;25.35;48.11;97050.38;4064951;29;5866;-65
2022/09/04 17:54:04;;;;;;;;;;;;;;;25.33;48.32;97045.28;4068861;29;6053;-71
2022/09/04 17:56:17;;;;;;;;;;;;;;;25.33;48.25;97039.03;4069182;29;6767;-68
2022/09/04 17:58:29;;;;;;;;;;;;;;;25.32;48.42;97049.06;4069444;29;5950;-66
2022/09/04 18:00:56;;;;;;;;;;;;;;;25.30;48.15;97037.72;4065461;29;5932;-67
2022/09/04 18:03:26;;;;;;;;;;;;;;;25.29;48.08;97025.28;4069834;29;5979;-66
2022/09/04 18:05:34;;;;;;;;;;;;;;;25.28;48.61;97034.50;4067156;29;6711;-67
2022/09/04 18:07:55;;;;;;;;;;;;;;;25.24;48.60;97036.13;4069623;29;6085;-65
2022/09/04 18:10:22;;;;;;;;;;;;;;;25.24;48.46;97052.34;4068911;29;5974;-67
2022/09/04 18:12:33;;;;;;;;;;;;;;;25.23;48.46;97056.16;4068982;29;5995;-67
2022/09/04 18:14:42;;;;;;;;;;;;;;;25.21;48.24;97058.34;4069582;29;5875;-72
2022/09/04 18:16:58;;;;;;;;;;;;;;;25.20;48.48;97054.00;4068694;29;5961;-69
2022/09/04 18:19:21;;;;;;;;;;;;;;;25.19;48.56;97065.94;4070427;29;6002;-66
2022/09/04 18:21:28;;;;;;;;;;;;;;;25.17;48.67;97079.75;4071302;29;5895;-64
2022/09/04 18:24:00;;;;;;;;;;;;;;;25.16;48.63;97082.72;4065350;29;5884;-65
2022/09/04 18:26:10;;;;;;;;;;;;;;;25.13;48.62;97088.69;4058755;29;5941;-66
2022/09/04 18:28:18;;;;;;;;;;;;;;;25.13;49.00;97077.84;4072412;29;5986;-65
2022/09/04 18:30:23;;;;;;;;;;;;;;;25.12;48.53;97074.34;4070070;29;5875;-64
2022/09/04 18:32:52;;;;;;;;;;;;;;;25.10;48.76;97079.22;4068661;29;6076;-63
2022/09/04 18:35:20;;;;;;;;;;;;;;;25.10;48.63;97089.25;4070309;29;5827;-64
2022/09/04 18:37:50;;;;;;;;;;;;;;;25.08;49.06;97102.25;4062538;29;5903;-65
2022/09/04 18:40:06;;;;;;;;;;;;;;;25.05;48.66;97102.81;4068838;29;6715;-64
2022/09/04 18:42:15;;;;;;;;;;;;;;;25.07;48.69;97111.44;4067928;29;6670;-64
2022/09/04 18:44:44;;;;;;;;;;;;;;;25.06;49.04;97120.66;4069012;29;5879;-64
2022/09/04 18:47:18;;;;;;;;;;;;;;;25.05;48.86;97113.63;4067314;29;6074;-64
2022/09/04 18:49:41;;;;;;;;;;;;;;;25.04;48.88;97112.00;4069349;29;5962;-64
2022/09/04 18:52:09;;;;;;;;;;;;;;;25.02;49.09;97119.56;4070465;29;5934;-64
2022/09/04 18:54:20;;;;;;;;;;;;;;;25.02;48.97;97116.88;4064275;29;5976;-67
2022/09/04 18:56:27;;;;;;;;;;;;;;;25.00;49.01;97124.41;4067481;29;5958;-73
2022/09/04 18:58:44;;;;;;;;;;;;;;;24.99;48.94;97120.91;4060078;29;5907;-73
2022/09/04 19:00:52;;;;;;;;;;;;;;;25.00;49.34;97127.13;4069579;29;6562;-72
2022/09/04 19:03:10;;;;;;;;;;;;;;;24.99;49.21;97118.19;4067120;29;6038;-69
2022/09/04 19:05:15;;;;;;;;;;;;;;;25.00;49.03;97130.63;4065655;29;5950;-66
2022/09/04 19:07:28;;;;;;;;;;;;;;;25.00;49.23;97127.94;4070579;29;5871;-66
2022/09/04 19:09:58;;;;;;;;;;;;;;;25.01;48.95;97134.16;4070797;29;5876;-66
2022/09/04 19:12:06;;;;;;;;;;;;;;;25.01;49.31;97128.75;4070767;29;6657;-67
2022/09/04 19:14:15;;;;;;;;;;;;;;;25.00;49.09;97132.53;4070222;29;5982;-66
2022/09/04 19:16:23;;;;;;;;;;;;;;;25.00;49.13;97127.13;4070206;29;5855;-68
2022/09/04 19:18:40;;;;;;;;;;;;;;;24.98;49.43;97124.69;4070750;29;5935;-66
2022/09/04 19:20:47;;;;;;;;;;;;;;;25.00;49.41;97129.84;4070046;29;5879;-66
2022/09/04 19:22:57;;;;;;;;;;;;;;;24.98;49.41;97136.31;4070887;29;5859;-67
2022/09/04 19:25:05;;;;;;;;;;;;;;;24.98;49.41;97133.63;4069471;29;5920;-68
2022/09/04 19:27:22;;;;;;;;;;;;;;;24.98;49.55;97139.03;4070998;29;5862;-67